sensor_id;sensor_type;location;lat;lon;timestamp;pressure;altitude;pressure_sealevel;temperature;humidity
19594;BME280;9944;48.240;16.478;2023-04-28T00:01:18;100162.53;;;8.22;53.25
19594;BME280;9944;48.240;16.478;2023-04-28T00:05:23;100167.72;;;8.14;54.12
19594;BME280;9944;48.240;16.478;2023-04-28T00:09:26;100157.09;;;8.07;54.25
19594;BME280;9944;48.240;16.478;2023-04-28T00:13:29;100157.88;;;7.98;54.56
19594;BME280;9944;48.240;16.478;2023-04-28T00:17:32;100163.00;;;7.89;54.35
19594;BME280;9944;48.240;16.478;2023-04-28T00:21:37;100152.38;;;7.79;54.41
19594;BME280;9944;48.240;16.478;2023-04-28T00:25:40;100152.25;;;7.70;54.24
19594;BME280;9944;48.240;16.478;2023-04-28T00:29:43;100148.69;;;7.64;54.34
19594;BME280;9944;48.240;16.478;2023-04-28T00:33:50;100141.56;;;7.58;54.22
19594;BME280;9944;48.240;16.478;2023-04-28T00:37:54;100152.09;;;7.58;54.67
19594;BME280;9944;48.240;16.478;2023-04-28T00:41:58;100145.13;;;7.60;54.69
19594;BME280;9944;48.240;16.478;2023-04-28T00:46:01;100144.16;;;7.56;53.93
19594;BME280;9944;48.240;16.478;2023-04-28T00:50:05;100140.56;;;7.48;54.02
19594;BME280;9944;48.240;16.478;2023-04-28T00:54:12;100130.84;;;7.42;54.02
19594;BME280;9944;48.240;16.478;2023-04-28T00:58:16;100136.91;;;7.38;54.24
19594;BME280;9944;48.240;16.478;2023-04-28T01:02:19;100127.31;;;7.40;54.13
19594;BME280;9944;48.240;16.478;2023-04-28T01:06:22;100129.94;;;7.40;53.92
19594;BME280;9944;48.240;16.478;2023-04-28T01:10:31;100130.84;;;7.42;54.31
19594;BME280;9944;48.240;16.478;2023-04-28T01:14:41;100132.63;;;7.43;54.27
19594;BME280;9944;48.240;16.478;2023-04-28T01:18:46;100127.38;;;7.43;54.36
19594;BME280;9944;48.240;16.478;2023-04-28T01:22:49;100129.09;;;7.41;54.62
19594;BME280;9944;48.240;16.478;2023-04-28T01:26:54;100142.19;;;7.40;54.82
19594;BME280;9944;48.240;16.478;2023-04-28T01:30:57;100123.75;;;7.37;54.74
19594;BME280;9944;48.240;16.478;2023-04-28T01:35:01;100118.50;;;7.35;54.86
19594;BME280;9944;48.240;16.478;2023-04-28T01:39:04;100117.56;;;7.32;54.92
19594;BME280;9944;48.240;16.478;2023-04-28T01:43:09;100120.16;;;7.27;54.96
19594;BME280;9944;48.240;16.478;2023-04-28T01:47:12;100108.72;;;7.25;55.09
19594;BME280;9944;48.240;16.478;2023-04-28T01:51:15;100106.00;;;7.19;55.06
19594;BME280;9944;48.240;16.478;2023-04-28T01:55:18;100115.47;;;7.09;55.18
19594;BME280;9944;48.240;16.478;2023-04-28T01:59:24;100115.41;;;7.03;55.45
19594;BME280;9944;48.240;16.478;2023-04-28T02:03:27;100120.53;;;6.97;55.69
19594;BME280;9944;48.240;16.478;2023-04-28T02:07:31;100117.81;;;6.92;55.89
19594;BME280;9944;48.240;16.478;2023-04-28T02:11:34;100116.84;;;6.84;55.73
19594;BME280;9944;48.240;16.478;2023-04-28T02:15:40;100125.50;;;6.80;55.80
19594;BME280;9944;48.240;16.478;2023-04-28T02:19:43;100125.34;;;6.71;55.78
19594;BME280;9944;48.240;16.478;2023-04-28T02:23:46;100111.34;;;6.69;55.87
19594;BME280;9944;48.240;16.478;2023-04-28T02:27:51;100106.94;;;6.67;56.05
19594;BME280;9944;48.240;16.478;2023-04-28T02:31:55;100118.28;;;6.66;55.91
19594;BME280;9944;48.240;16.478;2023-04-28T02:35:58;100112.09;;;6.61;56.04
19594;BME280;9944;48.240;16.478;2023-04-28T02:40:02;100119.00;;;6.56;56.05
19594;BME280;9944;48.240;16.478;2023-04-28T02:44:05;100120.75;;;6.57;56.21
19594;BME280;9944;48.240;16.478;2023-04-28T02:48:10;100117.34;;;6.61;56.33
19594;BME280;9944;48.240;16.478;2023-04-28T02:52:13;100124.38;;;6.65;56.12
19594;BME280;9944;48.240;16.478;2023-04-28T02:56:16;100114.75;;;6.66;56.50
19594;BME280;9944;48.240;16.478;2023-04-28T03:00:20;100113.91;;;6.65;56.48
19594;BME280;9944;48.240;16.478;2023-04-28T03:04:26;100106.88;;;6.63;56.68
19594;BME280;9944;48.240;16.478;2023-04-28T03:08:29;100092.84;;;6.62;56.57
19594;BME280;9944;48.240;16.478;2023-04-28T03:12:32;100087.50;;;6.56;56.76
19594;BME280;9944;48.240;16.478;2023-04-28T03:16:35;100078.66;;;6.50;56.72
19594;BME280;9944;48.240;16.478;2023-04-28T03:20:40;100080.22;;;6.41;56.73
19594;BME280;9944;48.240;16.478;2023-04-28T03:24:43;100082.78;;;6.38;56.97
19594;BME280;9944;48.240;16.478;2023-04-28T03:28:46;100080.09;;;6.34;56.95
19594;BME280;9944;48.240;16.478;2023-04-28T03:32:50;100087.06;;;6.32;57.13
19594;BME280;9944;48.240;16.478;2023-04-28T03:36:54;100084.38;;;6.28;56.88
19594;BME280;9944;48.240;16.478;2023-04-28T03:41:02;100092.25;;;6.28;57.04
19594;BME280;9944;48.240;16.478;2023-04-28T03:45:28;100084.41;;;6.30;57.03
19594;BME280;9944;48.240;16.478;2023-04-28T03:49:32;100082.63;;;6.29;57.15
19594;BME280;9944;48.240;16.478;2023-04-28T03:53:37;100078.22;;;6.26;57.31
19594;BME280;9944;48.240;16.478;2023-04-28T03:57:40;100086.91;;;6.24;57.25
19594;BME280;9944;48.240;16.478;2023-04-28T04:01:43;100087.75;;;6.21;57.54
19594;BME280;9944;48.240;16.478;2023-04-28T04:05:46;100091.25;;;6.23;57.65
19594;BME280;9944;48.240;16.478;2023-04-28T04:09:51;100083.47;;;6.26;57.49
19594;BME280;9944;48.240;16.478;2023-04-28T04:13:54;100092.25;;;6.28;57.73
19594;BME280;9944;48.240;16.478;2023-04-28T04:17:59;100096.63;;;6.31;57.83
19594;BME280;9944;48.240;16.478;2023-04-28T04:22:11;100089.69;;;6.33;58.01
19594;BME280;9944;48.240;16.478;2023-04-28T04:26:16;100084.50;;;6.36;58.04
19594;BME280;9944;48.240;16.478;2023-04-28T04:30:22;100081.88;;;6.36;58.39
19594;BME280;9944;48.240;16.478;2023-04-28T04:34:25;100081.03;;;6.37;58.14
19594;BME280;9944;48.240;16.478;2023-04-28T04:38:28;100081.97;;;6.41;58.27
19594;BME280;9944;48.240;16.478;2023-04-28T04:42:37;100085.59;;;6.46;58.33
19594;BME280;9944;48.240;16.478;2023-04-28T04:46:43;100077.81;;;6.52;58.42
19594;BME280;9944;48.240;16.478;2023-04-28T04:50:47;100076.94;;;6.52;58.54
19594;BME280;9944;48.240;16.478;2023-04-28T04:54:50;100062.09;;;6.54;58.43
19594;BME280;9944;48.240;16.478;2023-04-28T04:58:55;100070.06;;;6.58;58.46
19594;BME280;9944;48.240;16.478;2023-04-28T05:03:21;100067.53;;;6.64;58.42
19594;BME280;9944;48.240;16.478;2023-04-28T05:07:25;100065.00;;;6.71;58.48
19594;BME280;9944;48.240;16.478;2023-04-28T05:11:29;100069.50;;;6.78;58.76
19594;BME280;9944;48.240;16.478;2023-04-28T05:15:34;100068.72;;;6.82;58.79
19594;BME280;9944;48.240;16.478;2023-04-28T05:19:54;100064.34;;;6.82;58.74
19594;BME280;9944;48.240;16.478;2023-04-28T05:23:58;100075.81;;;6.89;58.84
19594;BME280;9944;48.240;16.478;2023-04-28T05:28:01;100068.84;;;6.91;58.59
19594;BME280;9944;48.240;16.478;2023-04-28T05:32:09;100069.78;;;6.96;58.86
19594;BME280;9944;48.240;16.478;2023-04-28T05:36:13;100063.81;;;7.07;58.89
19594;BME280;9944;48.240;16.478;2023-04-28T05:40:19;100053.56;;;7.22;58.82
19594;BME280;9944;48.240;16.478;2023-04-28T05:44:23;100052.81;;;7.32;58.76
19594;BME280;9944;48.240;16.478;2023-04-28T05:48:27;100055.63;;;7.48;58.70
19594;BME280;9944;48.240;16.478;2023-04-28T05:52:30;100053.09;;;7.55;58.65
19594;BME280;9944;48.240;16.478;2023-04-28T05:56:34;100058.50;;;7.68;58.64
19594;BME280;9944;48.240;16.478;2023-04-28T06:00:37;100048.09;;;7.77;58.37
19594;BME280;9944;48.240;16.478;2023-04-28T06:04:42;100049.16;;;7.93;58.62
19594;BME280;9944;48.240;16.478;2023-04-28T06:08:45;100059.03;;;8.12;58.26
19594;BME280;9944;48.240;16.478;2023-04-28T06:12:48;100063.63;;;8.32;57.94
19594;BME280;9944;48.240;16.478;2023-04-28T06:16:51;100057.66;;;8.50;57.58
19594;BME280;9944;48.240;16.478;2023-04-28T06:20:56;100047.31;;;8.76;57.64
19594;BME280;9944;48.240;16.478;2023-04-28T06:24:59;100029.06;;;8.98;56.95
19594;BME280;9944;48.240;16.478;2023-04-28T06:29:08;100037.97;;;9.21;56.81
19594;BME280;9944;48.240;16.478;2023-04-28T06:33:11;100032.88;;;9.52;56.49
19594;BME280;9944;48.240;16.478;2023-04-28T06:37:15;100035.59;;;9.80;56.05
19594;BME280;9944;48.240;16.478;2023-04-28T06:41:21;100033.06;;;10.06;55.40
19594;BME280;9944;48.240;16.478;2023-04-28T06:45:26;100030.47;;;10.26;54.34
19594;BME280;9944;48.240;16.478;2023-04-28T06:49:30;100019.03;;;10.42;54.18
19594;BME280;9944;48.240;16.478;2023-04-28T06:53:35;100010.25;;;10.68;53.79
19594;BME280;9944;48.240;16.478;2023-04-28T06:57:41;100003.19;;;10.89;53.52
19594;BME280;9944;48.240;16.478;2023-04-28T07:01:45;99993.50;;;10.97;52.36
19594;BME280;9944;48.240;16.478;2023-04-28T07:05:48;99989.06;;;10.96;52.05
19594;BME280;9944;48.240;16.478;2023-04-28T07:09:53;99993.50;;;10.98;51.99
19594;BME280;9944;48.240;16.478;2023-04-28T07:13:56;99990.84;;;10.94;51.65
19594;BME280;9944;48.240;16.478;2023-04-28T07:17:59;99989.94;;;11.01;52.07
19594;BME280;9944;48.240;16.478;2023-04-28T07:22:02;99975.84;;;11.16;51.60
19594;BME280;9944;48.240;16.478;2023-04-28T07:26:07;99969.63;;;11.25;51.33
19594;BME280;9944;48.240;16.478;2023-04-28T07:30:10;99976.69;;;11.35;51.30
19594;BME280;9944;48.240;16.478;2023-04-28T07:34:28;99992.44;;;11.53;51.77
19594;BME280;9944;48.240;16.478;2023-04-28T07:38:32;99987.06;;;11.75;50.86
19594;BME280;9944;48.240;16.478;2023-04-28T07:42:37;99979.91;;;11.92;50.16
19594;BME280;9944;48.240;16.478;2023-04-28T07:46:40;99973.59;;;12.07;50.34
19594;BME280;9944;48.240;16.478;2023-04-28T07:50:43;99973.47;;;12.30;50.46
19594;BME280;9944;48.240;16.478;2023-04-28T07:54:46;99967.94;;;12.55;49.95
19594;BME280;9944;48.240;16.478;2023-04-28T07:58:51;99967.78;;;12.75;49.92
19594;BME280;9944;48.240;16.478;2023-04-28T08:02:54;99974.63;;;12.96;49.56
19594;BME280;9944;48.240;16.478;2023-04-28T08:06:58;99979.81;;;13.09;49.46
19594;BME280;9944;48.240;16.478;2023-04-28T08:11:01;99970.09;;;13.07;48.31
19594;BME280;9944;48.240;16.478;2023-04-28T08:15:07;99976.25;;;13.10;48.72
19594;BME280;9944;48.240;16.478;2023-04-28T08:19:11;99971.75;;;13.16;48.25
19594;BME280;9944;48.240;16.478;2023-04-28T08:23:14;99961.03;;;13.24;48.51
19594;BME280;9944;48.240;16.478;2023-04-28T08:27:17;99952.03;;;13.40;48.91
19594;BME280;9944;48.240;16.478;2023-04-28T08:31:21;99930.50;;;13.62;48.69
19594;BME280;9944;48.240;16.478;2023-04-28T08:35:24;99931.09;;;13.84;48.33
19594;BME280;9944;48.240;16.478;2023-04-28T08:39:28;99906.09;;;14.00;47.54
19594;BME280;9944;48.240;16.478;2023-04-28T08:43:33;99903.16;;;14.17;47.33
19594;BME280;9944;48.240;16.478;2023-04-28T08:47:39;99911.69;;;14.35;47.32
19594;BME280;9944;48.240;16.478;2023-04-28T08:51:49;99904.94;;;14.67;47.71
19594;BME280;9944;48.240;16.478;2023-04-28T08:55:56;99896.56;;;14.88;46.32
19594;BME280;9944;48.240;16.478;2023-04-28T08:59:59;99894.41;;;15.09;45.86
19594;BME280;9944;48.240;16.478;2023-04-28T09:04:05;99894.13;;;15.21;45.81
19594;BME280;9944;48.240;16.478;2023-04-28T09:08:09;99885.91;;;15.32;45.49
19594;BME280;9944;48.240;16.478;2023-04-28T09:12:12;99887.50;;;15.41;45.82
19594;BME280;9944;48.240;16.478;2023-04-28T09:16:16;99893.41;;;15.55;45.80
19594;BME280;9944;48.240;16.478;2023-04-28T09:20:21;99886.69;;;15.76;45.24
19594;BME280;9944;48.240;16.478;2023-04-28T09:24:26;99891.81;;;15.85;44.33
19594;BME280;9944;48.240;16.478;2023-04-28T09:28:30;99877.66;;;15.83;44.47
19594;BME280;9944;48.240;16.478;2023-04-28T09:32:33;99875.78;;;15.88;44.26
19594;BME280;9944;48.240;16.478;2023-04-28T09:36:38;99867.59;;;15.96;44.04
19594;BME280;9944;48.240;16.478;2023-04-28T09:40:53;99861.34;;;15.99;44.26
19594;BME280;9944;48.240;16.478;2023-04-28T09:44:57;99847.06;;;16.01;43.60
19594;BME280;9944;48.240;16.478;2023-04-28T09:49:00;99828.41;;;16.01;44.00
19594;BME280;9944;48.240;16.478;2023-04-28T09:53:05;99829.88;;;16.15;44.06
19594;BME280;9944;48.240;16.478;2023-04-28T09:57:14;99822.34;;;16.31;44.21
19594;BME280;9944;48.240;16.478;2023-04-28T10:01:17;99816.81;;;16.38;43.79
19594;BME280;9944;48.240;16.478;2023-04-28T10:05:21;99809.38;;;16.50;43.32
19594;BME280;9944;48.240;16.478;2023-04-28T10:09:27;99799.34;;;16.59;42.99
19594;BME280;9944;48.240;16.478;2023-04-28T10:13:30;99792.69;;;16.74;43.95
19594;BME280;9944;48.240;16.478;2023-04-28T10:17:34;99800.38;;;16.85;43.20
19594;BME280;9944;48.240;16.478;2023-04-28T10:21:44;99786.06;;;16.89;43.08
19594;BME280;9944;48.240;16.478;2023-04-28T10:25:54;99779.75;;;16.92;42.94
19594;BME280;9944;48.240;16.478;2023-04-28T10:30:11;99778.84;;;16.93;42.07
19594;BME280;9944;48.240;16.478;2023-04-28T10:34:28;99776.19;;;16.93;43.04
19594;BME280;9944;48.240;16.478;2023-04-28T10:38:32;99763.63;;;16.96;42.18
19594;BME280;9944;48.240;16.478;2023-04-28T10:42:52;99763.59;;;16.98;42.33
19594;BME280;9944;48.240;16.478;2023-04-28T10:47:00;99750.19;;;16.99;42.75
19594;BME280;9944;48.240;16.478;2023-04-28T10:51:32;99755.84;;;17.18;43.07
19594;BME280;9944;48.240;16.478;2023-04-28T10:55:35;99748.00;;;17.41;42.44
19594;BME280;9944;48.240;16.478;2023-04-28T10:59:41;99750.19;;;17.54;41.66
19594;BME280;9944;48.240;16.478;2023-04-28T11:03:48;99745.38;;;17.66;41.78
19594;BME280;9944;48.240;16.478;2023-04-28T11:08:30;99741.09;;;17.88;41.29
19594;BME280;9944;48.240;16.478;2023-04-28T11:12:34;99722.78;;;18.03;40.69
19594;BME280;9944;48.240;16.478;2023-04-28T11:16:48;99731.69;;;18.03;40.69
19594;BME280;9944;48.240;16.478;2023-04-28T11:20:55;99718.94;;;18.10;40.68
19594;BME280;9944;48.240;16.478;2023-04-28T11:25:00;99704.56;;;18.14;41.23
19594;BME280;9944;48.240;16.478;2023-04-28T11:29:04;99692.47;;;18.27;40.84
19594;BME280;9944;48.240;16.478;2023-04-28T11:33:08;99696.91;;;18.28;40.01
19594;BME280;9944;48.240;16.478;2023-04-28T11:37:14;99685.22;;;18.31;40.75
19594;BME280;9944;48.240;16.478;2023-04-28T11:41:18;99664.38;;;18.41;40.10
19594;BME280;9944;48.240;16.478;2023-04-28T11:45:21;99672.59;;;18.58;40.98
19594;BME280;9944;48.240;16.478;2023-04-28T11:49:27;99667.06;;;18.64;40.95
19594;BME280;9944;48.240;16.478;2023-04-28T11:53:40;99658.84;;;18.69;40.59
19594;BME280;9944;48.240;16.478;2023-04-28T11:57:43;99657.13;;;18.68;39.69
19594;BME280;9944;48.240;16.478;2023-04-28T12:01:48;99649.50;;;18.57;40.02
19594;BME280;9944;48.240;16.478;2023-04-28T12:05:52;99666.56;;;18.53;40.30
19594;BME280;9944;48.240;16.478;2023-04-28T12:10:09;99650.84;;;18.45;40.17
19594;BME280;9944;48.240;16.478;2023-04-28T12:14:13;99648.06;;;18.48;40.50
19594;BME280;9944;48.240;16.478;2023-04-28T12:18:16;99648.81;;;18.52;40.15
19594;BME280;9944;48.240;16.478;2023-04-28T12:22:21;99657.03;;;18.46;40.14
19594;BME280;9944;48.240;16.478;2023-04-28T12:26:25;99672.34;;;18.42;40.36
19594;BME280;9944;48.240;16.478;2023-04-28T12:30:30;99669.59;;;18.44;40.26
19594;BME280;9944;48.240;16.478;2023-04-28T12:34:34;99666.34;;;18.36;39.81
19594;BME280;9944;48.240;16.478;2023-04-28T12:38:46;99677.41;;;18.26;40.21
19594;BME280;9944;48.240;16.478;2023-04-28T12:42:49;99668.63;;;18.23;40.76
19594;BME280;9944;48.240;16.478;2023-04-28T12:46:53;99664.31;;;18.19;41.06
19594;BME280;9944;48.240;16.478;2023-04-28T12:50:56;99646.72;;;18.13;41.62
19594;BME280;9944;48.240;16.478;2023-04-28T12:55:01;99646.81;;;18.10;41.55
19594;BME280;9944;48.240;16.478;2023-04-28T12:59:04;99665.50;;;18.10;41.45
19594;BME280;9944;48.240;16.478;2023-04-28T13:03:07;99661.28;;;18.04;40.72
19594;BME280;9944;48.240;16.478;2023-04-28T13:07:11;99657.59;;;17.83;40.96
19594;BME280;9944;48.240;16.478;2023-04-28T13:11:15;99656.06;;;17.76;40.76
19594;BME280;9944;48.240;16.478;2023-04-28T13:15:23;99650.91;;;17.70;40.78
19594;BME280;9944;48.240;16.478;2023-04-28T13:19:27;99665.50;;;17.60;40.81
19594;BME280;9944;48.240;16.478;2023-04-28T13:23:31;99649.72;;;17.53;41.09
19594;BME280;9944;48.240;16.478;2023-04-28T13:27:36;99660.69;;;17.44;41.27
19594;BME280;9944;48.240;16.478;2023-04-28T13:31:41;99669.97;;;17.34;41.58
19594;BME280;9944;48.240;16.478;2023-04-28T13:35:45;99660.19;;;17.33;41.81
19594;BME280;9944;48.240;16.478;2023-04-28T13:39:48;99654.75;;;17.36;42.07
19594;BME280;9944;48.240;16.478;2023-04-28T13:43:53;99652.03;;;17.37;42.26
19594;BME280;9944;48.240;16.478;2023-04-28T13:47:56;99652.94;;;17.36;42.10
19594;BME280;9944;48.240;16.478;2023-04-28T13:51:59;99647.91;;;17.29;42.10
19594;BME280;9944;48.240;16.478;2023-04-28T13:56:05;99631.03;;;17.27;42.03
19594;BME280;9944;48.240;16.478;2023-04-28T14:00:11;99632.28;;;17.16;41.88
19594;BME280;9944;48.240;16.478;2023-04-28T14:04:14;99637.81;;;17.10;41.98
19594;BME280;9944;48.240;16.478;2023-04-28T14:08:18;99640.53;;;17.09;42.37
19594;BME280;9944;48.240;16.478;2023-04-28T14:12:21;99638.75;;;17.09;42.40
19594;BME280;9944;48.240;16.478;2023-04-28T14:16:26;99627.56;;;16.98;42.19
19594;BME280;9944;48.240;16.478;2023-04-28T14:20:29;99638.41;;;16.92;42.86
19594;BME280;9944;48.240;16.478;2023-04-28T14:24:33;99625.09;;;16.92;43.37
19594;BME280;9944;48.240;16.478;2023-04-28T14:28:36;99632.81;;;17.01;43.80
19594;BME280;9944;48.240;16.478;2023-04-28T14:32:40;99627.53;;;16.99;43.47
19594;BME280;9944;48.240;16.478;2023-04-28T14:36:43;99631.97;;;16.99;43.41
19594;BME280;9944;48.240;16.478;2023-04-28T14:40:47;99633.91;;;16.94;43.18
19594;BME280;9944;48.240;16.478;2023-04-28T14:44:50;99635.94;;;16.87;43.50
19594;BME280;9944;48.240;16.478;2023-04-28T14:48:56;99623.59;;;16.81;43.66
19594;BME280;9944;48.240;16.478;2023-04-28T14:53:00;99623.91;;;16.72;43.79
19594;BME280;9944;48.240;16.478;2023-04-28T14:57:06;99609.94;;;16.64;44.67
19594;BME280;9944;48.240;16.478;2023-04-28T15:01:09;99592.50;;;16.54;45.36
19594;BME280;9944;48.240;16.478;2023-04-28T15:05:13;99567.91;;;16.46;45.34
19594;BME280;9944;48.240;16.478;2023-04-28T15:09:17;99566.47;;;16.35;45.71
19594;BME280;9944;48.240;16.478;2023-04-28T15:13:20;99555.97;;;16.29;45.85
19594;BME280;9944;48.240;16.478;2023-04-28T15:17:25;99580.97;;;16.25;46.20
19594;BME280;9944;48.240;16.478;2023-04-28T15:21:30;99589.09;;;16.20;46.32
19594;BME280;9944;48.240;16.478;2023-04-28T15:25:33;99600.63;;;16.21;46.65
19594;BME280;9944;48.240;16.478;2023-04-28T15:29:36;99606.06;;;16.18;46.89
19594;BME280;9944;48.240;16.478;2023-04-28T15:33:39;99593.72;;;16.14;46.70
19594;BME280;9944;48.240;16.478;2023-04-28T15:37:45;99597.50;;;16.06;47.37
19594;BME280;9944;48.240;16.478;2023-04-28T15:41:49;99594.88;;;16.05;48.06
19594;BME280;9944;48.240;16.478;2023-04-28T15:45:53;99586.88;;;16.05;48.41
19594;BME280;9944;48.240;16.478;2023-04-28T15:49:56;99578.13;;;16.01;49.82
19594;BME280;9944;48.240;16.478;2023-04-28T15:54:01;99579.97;;;15.99;50.67
19594;BME280;9944;48.240;16.478;2023-04-28T15:58:04;99577.59;;;15.90;51.09
19594;BME280;9944;48.240;16.478;2023-04-28T16:02:09;99578.91;;;15.74;51.68
19594;BME280;9944;48.240;16.478;2023-04-28T16:06:12;99586.31;;;15.62;52.05
19594;BME280;9944;48.240;16.478;2023-04-28T16:10:16;99592.78;;;15.54;52.96
19594;BME280;9944;48.240;16.478;2023-04-28T16:14:20;99594.81;;;15.44;53.44
19594;BME280;9944;48.240;16.478;2023-04-28T16:18:23;99594.16;;;15.34;53.79
19594;BME280;9944;48.240;16.478;2023-04-28T16:22:26;99594.38;;;15.26;53.87
19594;BME280;9944;48.240;16.478;2023-04-28T16:26:31;99596.28;;;15.21;54.65
19594;BME280;9944;48.240;16.478;2023-04-28T16:30:34;99600.78;;;15.19;55.13
19594;BME280;9944;48.240;16.478;2023-04-28T16:34:37;99593.72;;;15.17;55.47
19594;BME280;9944;48.240;16.478;2023-04-28T16:38:41;99584.97;;;15.13;56.07
19594;BME280;9944;48.240;16.478;2023-04-28T16:42:48;99584.13;;;15.11;56.36
19594;BME280;9944;48.240;16.478;2023-04-28T16:46:51;99586.88;;;15.08;56.77
19594;BME280;9944;48.240;16.478;2023-04-28T16:50:54;99594.84;;;15.08;57.42
19594;BME280;9944;48.240;16.478;2023-04-28T16:54:57;99596.59;;;15.09;58.53
19594;BME280;9944;48.240;16.478;2023-04-28T16:59:02;99593.25;;;15.01;59.21
19594;BME280;9944;48.240;16.478;2023-04-28T17:03:05;99583.69;;;14.93;60.09
19594;BME280;9944;48.240;16.478;2023-04-28T17:07:09;99590.03;;;14.88;60.61
19594;BME280;9944;48.240;16.478;2023-04-28T17:11:14;99586.72;;;14.76;61.05
19594;BME280;9944;48.240;16.478;2023-04-28T17:15:19;99573.69;;;14.67;61.94
19594;BME280;9944;48.240;16.478;2023-04-28T17:19:22;99580.09;;;14.59;62.28
19594;BME280;9944;48.240;16.478;2023-04-28T17:23:25;99584.63;;;14.53;63.24
19594;BME280;9944;48.240;16.478;2023-04-28T17:27:28;99583.88;;;14.48;63.74
19594;BME280;9944;48.240;16.478;2023-04-28T17:31:33;99572.53;;;14.40;63.97
19594;BME280;9944;48.240;16.478;2023-04-28T17:35:39;99571.94;;;14.29;64.25
19594;BME280;9944;48.240;16.478;2023-04-28T17:39:42;99575.53;;;14.25;64.83
19594;BME280;9944;48.240;16.478;2023-04-28T17:43:46;99579.13;;;14.24;65.26
19594;BME280;9944;48.240;16.478;2023-04-28T17:47:50;99571.19;;;14.22;65.17
19594;BME280;9944;48.240;16.478;2023-04-28T17:51:54;99569.56;;;14.16;65.53
19594;BME280;9944;48.240;16.478;2023-04-28T17:55:59;99572.25;;;14.13;66.04
19594;BME280;9944;48.240;16.478;2023-04-28T18:00:02;99570.59;;;14.09;66.33
19594;BME280;9944;48.240;16.478;2023-04-28T18:04:13;99565.34;;;14.06;66.57
19594;BME280;9944;48.240;16.478;2023-04-28T18:08:16;99553.13;;;13.99;67.01
19594;BME280;9944;48.240;16.478;2023-04-28T18:12:19;99556.72;;;13.95;67.66
19594;BME280;9944;48.240;16.478;2023-04-28T18:16:23;99551.44;;;13.93;68.04
19594;BME280;9944;48.240;16.478;2023-04-28T18:20:28;99543.59;;;13.89;68.20
19594;BME280;9944;48.240;16.478;2023-04-28T18:24:31;99535.75;;;13.82;68.32
19594;BME280;9944;48.240;16.478;2023-04-28T18:28:35;99552.72;;;13.75;68.48
19594;BME280;9944;48.240;16.478;2023-04-28T18:32:38;99570.44;;;13.72;68.63
19594;BME280;9944;48.240;16.478;2023-04-28T18:36:42;99565.19;;;13.69;68.92
19594;BME280;9944;48.240;16.478;2023-04-28T18:40:45;99558.25;;;13.63;69.00
19594;BME280;9944;48.240;16.478;2023-04-28T18:44:51;99550.41;;;13.57;69.25
19594;BME280;9944;48.240;16.478;2023-04-28T18:48:54;99553.13;;;13.54;69.84
19594;BME280;9944;48.240;16.478;2023-04-28T18:53:00;99568.13;;;13.55;69.79
19594;BME280;9944;48.240;16.478;2023-04-28T18:57:03;99562.00;;;13.53;69.97
19594;BME280;9944;48.240;16.478;2023-04-28T19:01:11;99562.84;;;13.53;70.48
19594;BME280;9944;48.240;16.478;2023-04-28T19:05:15;99555.84;;;13.51;70.48
19594;BME280;9944;48.240;16.478;2023-04-28T19:09:20;99565.63;;;13.49;70.51
19594;BME280;9944;48.240;16.478;2023-04-28T19:13:23;99568.31;;;13.46;71.08
19594;BME280;9944;48.240;16.478;2023-04-28T19:17:26;99576.28;;;13.46;70.94
19594;BME280;9944;48.240;16.478;2023-04-28T19:21:33;99578.94;;;13.46;71.09
19594;BME280;9944;48.240;16.478;2023-04-28T19:25:37;99568.38;;;13.42;71.06
19594;BME280;9944;48.240;16.478;2023-04-28T19:29:40;99563.97;;;13.41;71.54
19594;BME280;9944;48.240;16.478;2023-04-28T19:33:44;99567.53;;;13.40;71.50
19594;BME280;9944;48.240;16.478;2023-04-28T19:37:47;99558.75;;;13.38;71.46
19594;BME280;9944;48.240;16.478;2023-04-28T19:41:52;99564.97;;;13.34;71.63
19594;BME280;9944;48.240;16.478;2023-04-28T19:45:55;99573.91;;;13.30;71.75
19594;BME280;9944;48.240;16.478;2023-04-28T19:49:58;99571.25;;;13.30;72.04
19594;BME280;9944;48.240;16.478;2023-04-28T19:54:02;99573.03;;;13.30;72.35
19594;BME280;9944;48.240;16.478;2023-04-28T19:58:06;99560.69;;;13.29;72.50
19594;BME280;9944;48.240;16.478;2023-04-28T20:02:10;99560.69;;;13.27;72.52
19594;BME280;9944;48.240;16.478;2023-04-28T20:06:14;99565.97;;;13.29;72.49
19594;BME280;9944;48.240;16.478;2023-04-28T20:10:18;99565.13;;;13.28;72.23
19594;BME280;9944;48.240;16.478;2023-04-28T20:14:22;99550.09;;;13.27;72.74
19594;BME280;9944;48.240;16.478;2023-04-28T20:18:26;99559.00;;;13.24;72.99
19594;BME280;9944;48.240;16.478;2023-04-28T20:22:29;99563.41;;;13.24;73.15
19594;BME280;9944;48.240;16.478;2023-04-28T20:26:33;99554.63;;;13.22;73.12
19594;BME280;9944;48.240;16.478;2023-04-28T20:30:38;99563.50;;;13.19;73.20
19594;BME280;9944;48.240;16.478;2023-04-28T20:34:42;99571.47;;;13.18;73.28
19594;BME280;9944;48.240;16.478;2023-04-28T20:38:46;99565.41;;;13.13;73.27
19594;BME280;9944;48.240;16.478;2023-04-28T20:42:49;99558.34;;;13.10;73.36
19594;BME280;9944;48.240;16.478;2023-04-28T20:46:54;99553.19;;;13.04;73.26
19594;BME280;9944;48.240;16.478;2023-04-28T20:51:00;99555.84;;;13.02;73.62
19594;BME280;9944;48.240;16.478;2023-04-28T20:55:04;99546.22;;;12.98;73.74
19594;BME280;9944;48.240;16.478;2023-04-28T20:59:07;99547.16;;;12.94;74.00
19594;BME280;9944;48.240;16.478;2023-04-28T21:03:12;99533.91;;;12.94;74.06
19594;BME280;9944;48.240;16.478;2023-04-28T21:07:16;99551.53;;;12.98;74.33
19594;BME280;9944;48.240;16.478;2023-04-28T21:11:19;99555.91;;;12.99;74.29
19594;BME280;9944;48.240;16.478;2023-04-28T21:15:22;99557.69;;;12.99;74.26
19594;BME280;9944;48.240;16.478;2023-04-28T21:19:27;99560.34;;;12.97;74.51
19594;BME280;9944;48.240;16.478;2023-04-28T21:23:31;99551.53;;;12.98;74.84
19594;BME280;9944;48.240;16.478;2023-04-28T21:27:34;99551.53;;;12.98;74.65
19594;BME280;9944;48.240;16.478;2023-04-28T21:31:37;99544.47;;;12.97;74.98
19594;BME280;9944;48.240;16.478;2023-04-28T21:35:41;99544.47;;;12.97;75.04